Time;durP1;ratioP1;P1;durP2;ratioP2;P2;SDS_P1;SDS_P2;PMS_P1;PMS_P2;Temp;Humidity;BMP_temperature;BMP_pressure;BME280_temperature;BME280_humidity;BME280_pressure;Samples;Min_cycle;Max_cycle;Signal;HPM_P1;HPM_P2
2023/01/25 00:00:30;;;;;;;97.57;32.75;;;0.20;99.90;;;;;;5032986;28;20059;-74
2023/01/25 00:02:56;;;;;;;107.35;33.60;;;0.30;99.90;;;;;;5029112;28;20049;-74
2023/01/25 00:05:24;;;;;;;93.93;32.78;;;0.30;99.90;;;;;;5043560;28;20029;-74
2023/01/25 00:07:50;;;;;;;85.68;30.45;;;0.30;99.90;;;;;;5032545;28;20052;-74
2023/01/25 00:10:17;;;;;;;162.88;33.05;;;0.20;99.90;;;;;;5021702;28;20764;-73
2023/01/25 00:12:44;;;;;;;129.13;35.65;;;0.10;99.90;;;;;;5016750;28;20510;-74
2023/01/25 00:15:11;;;;;;;118.70;29.45;;;0.00;99.90;;;;;;5046341;28;20056;-74
2023/01/25 00:17:38;;;;;;;179.52;33.70;;;0.00;99.90;;;;;;5044915;28;20129;-74
2023/01/25 00:20:05;;;;;;;145.63;36.45;;;0.00;99.90;;;;;;5034325;28;20049;-74
2023/01/25 00:22:32;;;;;;;230.48;37.05;;;-0.10;99.90;;;;;;5021422;28;20407;-75
2023/01/25 00:24:58;;;;;;;110.18;32.25;;;-0.10;99.90;;;;;;5021348;28;20095;-74
2023/01/25 00:27:26;;;;;;;156.00;37.40;;;-0.10;99.90;;;;;;5037024;28;20582;-73
2023/01/25 00:29:53;;;;;;;149.48;36.60;;;0.00;99.90;;;;;;5044568;28;20068;-74
2023/01/25 00:32:19;;;;;;;154.75;36.70;;;0.00;99.90;;;;;;5035476;28;20120;-74
2023/01/25 00:34:51;;;;;;;105.90;32.92;;;0.00;99.90;;;;;;5033207;28;20518;-73
2023/01/25 00:37:36;;;;;;;195.63;37.10;;;0.10;99.90;;;;;;5040729;28;20056;-74
2023/01/25 00:40:04;;;;;;;206.02;36.38;;;0.00;99.90;;;;;;5032292;28;20045;-74
2023/01/25 00:42:31;;;;;;;234.68;41.08;;;-0.10;99.90;;;;;;5033023;28;20388;-73
2023/01/25 00:44:57;;;;;;;130.18;37.72;;;-0.10;99.90;;;;;;5035756;28;20048;-73
2023/01/25 00:47:24;;;;;;;159.32;37.97;;;-0.10;99.90;;;;;;5032428;28;20125;-73
2023/01/25 00:49:51;;;;;;;127.03;34.67;;;-0.10;99.90;;;;;;5039580;28;20068;-73
2023/01/25 00:52:19;;;;;;;194.35;42.17;;;0.00;99.90;;;;;;5036988;28;20520;-73
2023/01/25 00:54:46;;;;;;;197.10;41.53;;;0.00;99.90;;;;;;5027643;28;20033;-76
2023/01/25 00:57:13;;;;;;;138.93;34.75;;;0.00;99.90;;;;;;5017773;28;20045;-74
2023/01/25 00:59:43;;;;;;;198.40;40.40;;;0.10;99.90;;;;;;5015875;28;20056;-74
2023/01/25 01:02:11;;;;;;;156.43;37.65;;;0.10;99.90;;;;;;5015255;28;20040;-73
2023/01/25 01:04:37;;;;;;;211.68;39.22;;;0.00;99.90;;;;;;5029212;28;20052;-73
2023/01/25 01:07:04;;;;;;;276.38;42.25;;;-0.10;99.90;;;;;;5019349;28;20143;-74
2023/01/25 01:09:31;;;;;;;336.48;50.50;;;-0.20;99.90;;;;;;5031816;28;20304;-74
2023/01/25 01:11:58;;;;;;;320.90;47.45;;;-0.20;99.90;;;;;;5032711;28;20138;-74
2023/01/25 01:14:26;;;;;;;335.25;52.17;;;-0.20;99.90;;;;;;5026680;28;20049;-74
2023/01/25 01:16:53;;;;;;;285.45;45.15;;;-0.10;99.90;;;;;;5016719;28;20048;-73
2023/01/25 01:19:23;;;;;;;176.55;38.60;;;-0.10;99.90;;;;;;5032904;28;20497;-74
2023/01/25 01:21:50;;;;;;;214.82;42.58;;;-0.10;99.90;;;;;;5032707;28;20079;-73
2023/01/25 01:24:17;;;;;;;150.68;37.33;;;-0.10;99.90;;;;;;5018429;28;20473;-73
2023/01/25 01:26:44;;;;;;;137.65;36.70;;;-0.10;99.90;;;;;;5016325;28;20041;-73
2023/01/25 01:29:11;;;;;;;224.85;43.90;;;-0.20;99.90;;;;;;5028495;28;20496;-73
2023/01/25 01:31:37;;;;;;;273.77;47.55;;;-0.20;99.90;;;;;;5032720;28;20435;-73
2023/01/25 01:34:13;;;;;;;;;;;-0.20;99.90;;;;;;5035693;28;20474;-74
2023/01/25 01:36:40;;;;;;;341.80;51.40;;;-0.30;99.90;;;;;;5036472;28;20094;-73
2023/01/25 01:39:07;;;;;;;271.73;44.60;;;-0.30;99.90;;;;;;5033820;28;20507;-74
2023/01/25 01:41:34;;;;;;;352.27;53.55;;;-0.30;99.90;;;;;;5009346;28;20053;-74
2023/01/25 01:44:01;;;;;;;401.35;56.15;;;-0.30;99.90;;;;;;5025337;28;20404;-73
2023/01/25 01:46:37;;;;;;;314.70;44.75;;;-0.30;99.90;;;;;;5033229;28;20036;-73
2023/01/25 01:49:17;;;;;;;329.38;55.03;;;-0.30;99.90;;;;;;5034501;28;20040;-75
2023/01/25 01:52:01;;;;;;;300.80;52.55;;;-0.30;99.90;;;;;;5035955;28;20045;-73
2023/01/25 01:54:39;;;;;;;391.67;57.20;;;-0.30;99.90;;;;;;5037878;28;21925;-74
2023/01/25 01:57:17;;;;;;;475.45;62.22;;;-0.20;99.90;;;;;;5040882;28;20047;-74
2023/01/25 01:59:51;;;;;;;324.70;51.95;;;-0.20;99.90;;;;;;5036807;28;20045;-73
2023/01/25 02:02:18;;;;;;;428.58;61.85;;;-0.40;99.90;;;;;;5024923;28;20048;-73
2023/01/25 02:04:48;;;;;;;393.25;57.38;;;-0.30;99.90;;;;;;5019344;28;20102;-74
2023/01/25 02:07:24;;;;;;;347.85;52.92;;;-0.40;99.90;;;;;;5037908;28;20469;-73
2023/01/25 02:09:50;;;;;;;468.35;62.50;;;-0.40;99.90;;;;;;5031264;28;20288;-73
2023/01/25 02:12:19;;;;;;;460.25;58.88;;;-0.40;99.90;;;;;;5053188;28;20158;-74
2023/01/25 02:14:49;;;;;;;504.15;66.18;;;-0.40;99.90;;;;;;5030226;28;20127;-74
2023/01/25 02:17:34;;;;;;;440.33;62.22;;;-0.40;99.90;;;;;;5034229;28;20245;-73
2023/01/25 02:20:24;;;;;;;330.05;49.53;;;-0.40;99.90;;;;;;5031341;28;20048;-73
2023/01/25 02:23:48;;;;;;;363.42;55.65;;;-0.40;99.90;;;;;;5049242;28;20257;-73
2023/01/25 02:26:17;;;;;;;327.10;53.78;;;-0.40;99.90;;;;;;4927890;28;20312;-73
2023/01/25 02:29:01;;;;;;;249.25;45.08;;;-0.20;99.90;;;;;;5028713;28;20195;-76
2023/01/25 02:31:27;;;;;;;364.40;49.05;;;-0.30;99.90;;;;;;5033365;28;20044;-73
2023/01/25 02:33:54;;;;;;;510.80;60.95;;;-0.30;99.90;;;;;;5029910;28;20459;-73
2023/01/25 02:36:27;;;;;;;483.90;69.05;;;-0.40;99.90;;;;;;5035914;28;20058;-73
2023/01/25 02:39:00;;;;;;;371.35;51.47;;;-0.30;99.90;;;;;;5021199;28;20368;-74
2023/01/25 02:41:38;;;;;;;447.52;59.85;;;-0.20;99.90;;;;;;5030053;28;20327;-73
2023/01/25 02:44:09;;;;;;;426.55;69.63;;;-0.30;99.90;;;;;;5030427;28;20145;-73
2023/01/25 02:46:38;;;;;;;346.35;51.63;;;-0.40;99.90;;;;;;5032974;28;20040;-74
2023/01/25 02:49:07;;;;;;;495.08;59.92;;;-0.40;99.90;;;;;;5018478;28;20044;-74
2023/01/25 02:51:37;;;;;;;516.05;68.03;;;-0.40;99.90;;;;;;5018919;28;20135;-72
2023/01/25 02:54:06;;;;;;;500.95;65.60;;;-0.30;99.90;;;;;;5033257;28;20049;-73
2023/01/25 02:56:34;;;;;;;294.77;50.72;;;-0.30;99.90;;;;;;5038600;28;20052;-74
2023/01/25 02:59:04;;;;;;;463.83;59.35;;;-0.30;99.90;;;;;;5036064;28;20040;-74
2023/01/25 03:01:34;;;;;;;537.78;71.93;;;-0.40;99.90;;;;;;5056657;28;20052;-74
2023/01/25 03:04:02;;;;;;;417.20;58.67;;;-0.40;99.90;;;;;;5068099;28;20098;-74
2023/01/25 03:06:29;;;;;;;554.83;75.30;;;-0.40;99.90;;;;;;5009245;28;20066;-73
2023/01/25 03:08:55;;;;;;;660.33;88.22;;;-0.40;99.90;;;;;;5040714;28;20560;-74
2023/01/25 03:11:22;;;;;;;648.00;76.43;;;-0.40;99.90;;;;;;5037819;28;20063;-73
2023/01/25 03:13:51;;;;;;;606.05;78.75;;;-0.30;99.90;;;;;;5036326;28;20042;-76
2023/01/25 03:16:18;;;;;;;631.80;77.35;;;-0.20;99.90;;;;;;5035766;28;20587;-74
2023/01/25 03:18:45;;;;;;;572.83;73.38;;;-0.20;99.90;;;;;;5014379;28;21175;-74
2023/01/25 03:21:15;;;;;;;637.97;81.63;;;-0.20;99.90;;;;;;5035868;28;20135;-74
2023/01/25 03:23:42;;;;;;;551.30;81.13;;;-0.20;99.90;;;;;;5031013;28;20048;-74
2023/01/25 03:26:16;;;;;;;602.20;79.43;;;-0.20;99.90;;;;;;5036480;28;20466;-75
2023/01/25 03:29:07;;;;;;;702.13;91.13;;;-0.20;99.90;;;;;;5040314;28;20391;-74
2023/01/25 03:31:37;;;;;;;654.47;82.72;;;-0.30;99.90;;;;;;5030789;28;20440;-74
2023/01/25 03:34:03;;;;;;;672.13;80.60;;;-0.30;99.90;;;;;;5034662;28;20052;-73
2023/01/25 03:36:34;;;;;;;739.67;88.78;;;-0.20;99.90;;;;;;5020062;28;20415;-74
2023/01/25 03:39:02;;;;;;;710.92;94.47;;;-0.20;99.90;;;;;;5032279;28;20334;-75
2023/01/25 03:41:34;;;;;;;630.80;78.43;;;-0.20;99.90;;;;;;5031021;28;20118;-74
2023/01/25 03:44:01;;;;;;;622.67;83.05;;;-0.10;99.90;;;;;;5042361;28;20053;-76
2023/01/25 03:46:29;;;;;;;673.72;82.25;;;-0.10;99.90;;;;;;5059133;22;20171;-74
2023/01/25 03:48:55;;;;;;;628.70;76.63;;;-0.10;99.90;;;;;;5036302;28;20056;-74
2023/01/25 03:51:22;;;;;;;487.02;66.85;;;-0.10;99.90;;;;;;5021048;28;20059;-74
2023/01/25 03:53:50;;;;;;;634.78;90.25;;;-0.30;99.90;;;;;;5042537;28;20043;-75
2023/01/25 03:56:19;;;;;;;599.28;65.00;;;-0.30;99.90;;;;;;5026193;28;20045;-76
2023/01/25 03:58:56;;;;;;;676.35;83.93;;;-0.40;99.90;;;;;;5026014;28;20041;-75
2023/01/25 04:01:22;;;;;;;571.55;74.55;;;-0.30;99.90;;;;;;5026597;28;20041;-76
2023/01/25 04:03:49;;;;;;;471.67;65.65;;;-0.30;99.90;;;;;;5055372;28;20576;-75
2023/01/25 04:06:16;;;;;;;460.55;62.38;;;-0.30;99.90;;;;;;5039799;28;20136;-76
2023/01/25 04:08:43;;;;;;;440.98;58.15;;;-0.30;99.90;;;;;;5026365;28;20049;-75
2023/01/25 04:11:10;;;;;;;430.23;63.17;;;-0.30;99.90;;;;;;5039519;28;20049;-76
2023/01/25 04:13:38;;;;;;;633.20;79.57;;;-0.20;99.90;;;;;;5038951;28;20053;-76
2023/01/25 04:16:10;;;;;;;681.22;87.10;;;-0.20;99.90;;;;;;5021724;28;20077;-76
2023/01/25 04:19:00;;;;;;;536.22;70.00;;;-0.20;99.90;;;;;;5012252;28;20052;-76
2023/01/25 04:21:29;;;;;;;593.17;81.88;;;-0.10;99.90;;;;;;5055470;28;20053;-75
2023/01/25 04:23:56;;;;;;;609.15;81.43;;;-0.10;99.90;;;;;;5033300;28;20049;-75
2023/01/25 04:26:23;;;;;;;529.00;72.07;;;-0.10;99.90;;;;;;5022457;28;20498;-75
2023/01/25 04:28:54;;;;;;;634.67;83.20;;;-0.20;99.90;;;;;;5035843;28;20143;-76
2023/01/25 04:31:21;;;;;;;677.92;87.15;;;-0.20;99.90;;;;;;5019229;28;20716;-76
2023/01/25 04:33:48;;;;;;;606.80;77.40;;;-0.10;99.90;;;;;;5038414;28;20048;-76
2023/01/25 04:36:18;;;;;;;573.35;71.45;;;-0.20;99.90;;;;;;5038079;28;21469;-75
2023/01/25 04:38:45;;;;;;;575.22;73.85;;;-0.20;99.90;;;;;;5037211;28;20137;-75
2023/01/25 04:41:12;;;;;;;642.17;79.47;;;-0.20;99.90;;;;;;5038714;28;20041;-74
2023/01/25 04:43:38;;;;;;;551.92;75.68;;;-0.20;99.90;;;;;;5037045;28;20049;-74
2023/01/25 04:46:08;;;;;;;622.22;78.53;;;-0.10;99.90;;;;;;5040970;28;20049;-76
2023/01/25 04:48:35;;;;;;;514.83;64.93;;;-0.20;99.90;;;;;;5056995;28;20753;-76
2023/01/25 04:51:04;;;;;;;509.05;74.30;;;-0.10;99.90;;;;;;5039834;28;20045;-76
2023/01/25 04:53:32;;;;;;;586.70;75.63;;;-0.10;99.90;;;;;;5030462;28;20045;-75
2023/01/25 04:56:00;;;;;;;553.90;72.50;;;-0.20;99.90;;;;;;5034814;28;20033;-76
2023/01/25 04:58:32;;;;;;;520.88;66.15;;;-0.20;99.90;;;;;;5054580;28;20111;-76
2023/01/25 05:01:00;;;;;;;555.97;73.63;;;-0.20;99.90;;;;;;5053092;28;20436;-76
2023/01/25 05:03:27;;;;;;;391.13;54.97;;;-0.20;99.90;;;;;;5050575;28;20520;-76
2023/01/25 05:05:54;;;;;;;342.42;53.08;;;-0.30;99.90;;;;;;5036788;28;20041;-76
2023/01/25 05:08:24;;;;;;;356.40;55.67;;;-0.30;99.90;;;;;;5056361;28;20063;-76
2023/01/25 05:10:54;;;;;;;338.17;49.05;;;-0.40;99.90;;;;;;5036319;28;20661;-76
2023/01/25 05:13:43;;;;;;;440.48;56.92;;;-0.40;99.90;;;;;;5053106;28;20048;-76
2023/01/25 05:16:19;;;;;;;445.75;58.13;;;-0.50;99.90;;;;;;5022114;28;20044;-76
2023/01/25 05:18:46;;;;;;;362.13;53.70;;;-0.50;99.90;;;;;;5053449;28;20045;-76
2023/01/25 05:24:08;;;;;;;350.88;53.10;;;-0.40;99.90;;;;;;5053381;28;20052;-76
2023/01/25 05:29:22;;;;;;;;;;;-0.50;99.90;;;;;;5034865;28;20072;-75
2023/01/25 05:32:06;;;;;;;383.85;58.17;;;-0.50;99.90;;;;;;5034337;28;19928;-75
2023/01/25 05:34:34;;;;;;;345.23;55.42;;;-0.50;99.90;;;;;;5053488;28;20325;-76
2023/01/25 05:37:02;;;;;;;324.17;45.25;;;-0.50;99.90;;;;;;5038849;28;20051;-77
2023/01/25 05:39:29;;;;;;;405.00;56.22;;;-0.50;99.90;;;;;;5042396;28;20052;-77
2023/01/25 05:41:56;;;;;;;379.80;55.45;;;-0.50;99.90;;;;;;5052770;28;20041;-76
2023/01/25 05:44:23;;;;;;;390.20;53.35;;;-0.40;99.90;;;;;;5035730;28;20084;-77
2023/01/25 05:46:50;;;;;;;405.02;57.30;;;-0.40;99.90;;;;;;5035394;28;20045;-76
2023/01/25 05:49:18;;;;;;;383.40;57.30;;;-0.40;99.90;;;;;;5052547;28;20041;-75
2023/01/25 05:51:45;;;;;;;486.27;64.30;;;-0.40;99.90;;;;;;5036949;28;20470;-78
2023/01/25 05:54:15;;;;;;;398.55;57.65;;;-0.30;99.90;;;;;;5037191;28;20233;-76
2023/01/25 05:56:49;;;;;;;445.33;61.97;;;-0.30;99.90;;;;;;5038240;28;20048;-76
2023/01/25 05:59:17;;;;;;;463.50;63.58;;;-0.40;99.90;;;;;;5054945;28;20090;-76
2023/01/25 06:01:44;;;;;;;421.35;57.08;;;-0.40;99.90;;;;;;5036541;28;20051;-76
2023/01/25 06:04:14;;;;;;;501.73;70.63;;;-0.30;99.90;;;;;;5038542;28;20110;-76
2023/01/25 06:06:41;;;;;;;393.38;58.95;;;-0.30;99.90;;;;;;5037652;28;20052;-76
2023/01/25 06:09:13;;;;;;;380.38;59.20;;;-0.30;99.90;;;;;;5040209;28;20379;-76
2023/01/25 06:11:43;;;;;;;339.70;52.53;;;-0.30;99.90;;;;;;5032404;28;20114;-76
2023/01/25 06:14:13;;;;;;;362.65;54.88;;;-0.40;99.90;;;;;;5023765;28;20048;-76
2023/01/25 06:16:40;;;;;;;331.08;46.40;;;-0.50;99.90;;;;;;5035887;28;20449;-76
2023/01/25 06:19:26;;;;;;;384.60;56.78;;;-0.60;99.90;;;;;;5032742;28;20066;-76
2023/01/25 06:22:08;;;;;;;396.42;54.42;;;-0.50;99.90;;;;;;5020839;28;20441;-76
2023/01/25 06:24:34;;;;;;;400.70;58.85;;;-0.60;99.90;;;;;;5021191;28;20140;-76
2023/01/25 06:27:04;;;;;;;484.20;62.05;;;-0.60;99.90;;;;;;5036995;28;20083;-76
2023/01/25 06:29:31;;;;;;;338.42;54.03;;;-0.50;99.90;;;;;;5022235;28;20159;-76
2023/01/25 06:31:57;;;;;;;358.20;52.13;;;-0.60;99.90;;;;;;5036437;28;21031;-77
2023/01/25 06:34:24;;;;;;;331.27;47.05;;;-0.60;99.90;;;;;;5030208;28;20052;-76
2023/01/25 06:36:52;;;;;;;473.58;57.65;;;-0.60;99.90;;;;;;5034444;28;20757;-76
2023/01/25 06:39:19;;;;;;;412.63;55.08;;;-0.60;99.90;;;;;;5043204;28;20124;-76
2023/01/25 06:41:46;;;;;;;253.73;40.83;;;-0.60;99.90;;;;;;5053875;28;20041;-76
2023/01/25 06:44:12;;;;;;;358.65;50.90;;;-0.70;99.90;;;;;;5030130;28;20055;-76
2023/01/25 06:46:39;;;;;;;359.77;53.17;;;-0.70;99.90;;;;;;5046280;28;20048;-76
2023/01/25 06:49:06;;;;;;;307.55;48.20;;;-0.70;99.90;;;;;;5032852;28;20128;-77
2023/01/25 06:51:33;;;;;;;276.92;41.42;;;-0.60;99.90;;;;;;5033830;28;20140;-76
2023/01/25 06:54:03;;;;;;;303.45;47.15;;;-0.70;99.90;;;;;;5038041;28;20064;-75
2023/01/25 06:56:31;;;;;;;550.45;78.47;;;-0.70;99.90;;;;;;5042240;28;20099;-76
2023/01/25 06:58:58;;;;;;;317.92;50.75;;;-0.70;99.90;;;;;;5019545;28;20176;-76
2023/01/25 07:01:29;;;;;;;288.13;43.17;;;-0.70;99.90;;;;;;5036746;28;20041;-76
2023/01/25 07:03:57;;;;;;;376.95;48.60;;;-0.60;99.90;;;;;;5036000;28;20096;-76
2023/01/25 07:06:25;;;;;;;275.65;45.78;;;-0.50;99.90;;;;;;5038337;28;20040;-76
2023/01/25 07:08:52;;;;;;;287.48;47.10;;;-0.40;99.90;;;;;;5039336;28;20053;-76
2023/01/25 07:11:19;;;;;;;448.88;59.65;;;-0.40;99.90;;;;;;5018886;28;20042;-76
2023/01/25 07:13:46;;;;;;;541.75;80.85;;;-0.40;99.90;;;;;;5037227;28;20053;-76
2023/01/25 07:16:16;;;;;;;343.33;56.38;;;-0.40;99.90;;;;;;5016992;28;20041;-76
2023/01/25 07:18:42;;;;;;;380.10;62.15;;;-0.50;99.90;;;;;;5035796;28;20053;-76
2023/01/25 07:21:13;;;;;;;401.55;60.15;;;-0.50;99.90;;;;;;5034094;28;20541;-76
2023/01/25 07:23:40;;;;;;;364.02;59.13;;;-0.50;99.90;;;;;;5036549;28;20113;-76
2023/01/25 07:26:16;;;;;;;269.52;45.08;;;-0.50;99.90;;;;;;5037253;28;20079;-78
2023/01/25 07:28:45;;;;;;;311.58;46.92;;;-0.50;99.90;;;;;;5035881;28;20048;-78
2023/01/25 07:31:12;;;;;;;265.35;43.25;;;-0.50;99.90;;;;;;5023059;28;20095;-77
2023/01/25 07:33:39;;;;;;;209.50;37.15;;;-0.50;99.90;;;;;;5041850;28;20135;-78
2023/01/25 07:36:08;;;;;;;224.52;39.20;;;-0.60;99.90;;;;;;5039341;28;20080;-78
2023/01/25 07:38:35;;;;;;;328.63;51.70;;;-0.70;99.90;;;;;;5046926;28;20072;-79
2023/01/25 07:41:02;;;;;;;214.05;41.97;;;-0.80;99.90;;;;;;5040314;28;20033;-79
2023/01/25 07:43:29;;;;;;;435.98;63.13;;;-0.70;99.90;;;;;;5043935;28;20049;-76
2023/01/25 07:46:10;;;;;;;196.27;38.90;;;-0.60;99.90;;;;;;5023220;28;20037;-76
2023/01/25 07:48:37;;;;;;;195.82;36.28;;;-0.70;99.90;;;;;;5054874;28;20132;-76
2023/01/25 07:51:22;;;;;;;157.45;35.42;;;-0.60;99.90;;;;;;5038331;28;20536;-76
2023/01/25 07:53:57;;;;;;;153.63;35.90;;;-0.70;99.90;;;;;;5039323;28;20436;-79
2023/01/25 07:56:32;;;;;;;142.43;30.73;;;-0.70;99.90;;;;;;5026357;28;20041;-78
2023/01/25 07:59:03;;;;;;;140.43;32.00;;;-0.80;99.90;;;;;;5041092;28;20041;-78
2023/01/25 08:01:32;;;;;;;159.32;35.42;;;-0.80;99.90;;;;;;5027061;28;20588;-78
2023/01/25 08:04:00;;;;;;;145.23;35.22;;;-0.80;99.90;;;;;;5041740;28;20065;-78
2023/01/25 08:06:33;;;;;;;195.02;40.30;;;-0.80;99.90;;;;;;5042448;28;20064;-76
2023/01/25 08:09:01;;;;;;;171.07;38.17;;;-0.60;99.90;;;;;;5024103;28;20616;-75
2023/01/25 08:11:30;;;;;;;174.77;40.80;;;-0.70;99.90;;;;;;5052596;28;20140;-75
2023/01/25 08:13:57;;;;;;;151.43;36.53;;;-0.60;99.90;;;;;;5038081;28;20049;-75
2023/01/25 08:16:26;;;;;;;176.70;37.95;;;-0.50;99.90;;;;;;5018617;28;20056;-76
2023/01/25 08:18:55;;;;;;;194.43;37.67;;;-0.50;99.90;;;;;;5057101;28;20052;-75
2023/01/25 08:21:24;;;;;;;250.07;45.22;;;-0.40;99.90;;;;;;5022741;28;20131;-76
2023/01/25 08:23:51;;;;;;;165.32;39.15;;;-0.40;99.90;;;;;;5039088;28;20639;-76
2023/01/25 08:26:18;;;;;;;206.13;50.72;;;-0.30;99.90;;;;;;5039208;28;20037;-75
2023/01/25 08:28:44;;;;;;;155.30;42.05;;;-0.30;99.90;;;;;;5038846;28;20720;-76
2023/01/25 08:31:18;;;;;;;185.30;43.97;;;-0.20;99.90;;;;;;5024598;28;20676;-75
2023/01/25 08:33:45;;;;;;;132.55;33.67;;;-0.20;99.90;;;;;;5055521;28;20037;-75
2023/01/25 08:36:13;;;;;;;122.80;34.03;;;-0.20;99.90;;;;;;5056356;28;20121;-76
2023/01/25 08:38:40;;;;;;;119.63;33.10;;;-0.30;99.90;;;;;;5042080;28;20045;-76
2023/01/25 08:41:13;;;;;;;170.10;40.05;;;-0.30;99.90;;;;;;5061589;28;20139;-76
2023/01/25 08:43:40;;;;;;;118.72;33.92;;;-0.20;99.90;;;;;;5023616;28;20076;-76
2023/01/25 08:46:08;;;;;;;175.75;39.88;;;-0.10;99.90;;;;;;5057187;28;20037;-76
2023/01/25 08:48:35;;;;;;;119.22;31.33;;;-0.30;99.90;;;;;;5062860;28;20080;-76
2023/01/25 08:51:02;;;;;;;137.90;30.90;;;-0.30;99.90;;;;;;5022061;28;20051;-75
2023/01/25 08:53:32;;;;;;;121.22;31.50;;;-0.20;99.90;;;;;;5048488;28;20349;-75
2023/01/25 08:56:07;;;;;;;267.08;43.03;;;-0.30;99.90;;;;;;5037791;28;20713;-76
2023/01/25 08:58:36;;;;;;;113.45;31.52;;;-0.30;99.90;;;;;;5026764;28;20080;-76
2023/01/25 09:01:08;;;;;;;132.38;33.08;;;-0.20;99.90;;;;;;5038444;28;20044;-76
2023/01/25 09:03:37;;;;;;;84.28;30.25;;;-0.30;99.90;;;;;;5054087;28;20143;-76
2023/01/25 09:06:04;;;;;;;164.43;36.25;;;-0.30;99.90;;;;;;5038748;28;20095;-78
2023/01/25 09:08:32;;;;;;;139.27;38.00;;;-0.20;99.90;;;;;;5038367;28;20284;-77
2023/01/25 09:11:07;;;;;;;132.32;33.65;;;-0.20;99.90;;;;;;5038116;28;20075;-75
2023/01/25 09:13:34;;;;;;;142.45;36.35;;;-0.30;99.90;;;;;;5023888;28;20670;-76
2023/01/25 09:16:06;;;;;;;106.30;32.20;;;-0.20;99.90;;;;;;5037803;28;20041;-76
2023/01/25 09:18:34;;;;;;;174.65;37.78;;;-0.20;99.90;;;;;;5039741;28;20045;-77
2023/01/25 09:21:12;;;;;;;170.57;39.00;;;-0.10;99.90;;;;;;5037679;28;20052;-76
2023/01/25 09:23:39;;;;;;;116.05;36.10;;;0.00;99.90;;;;;;5040017;28;20044;-76
2023/01/25 09:26:23;;;;;;;96.97;30.50;;;-0.20;99.90;;;;;;5043087;28;20037;-76
2023/01/25 09:28:52;;;;;;;103.70;29.77;;;-0.30;99.90;;;;;;5041724;28;20134;-77
2023/01/25 09:31:20;;;;;;;93.47;27.90;;;-0.30;99.90;;;;;;5030924;28;20051;-77
2023/01/25 09:34:12;;;;;;;100.93;26.08;;;-0.10;99.90;;;;;;5052530;28;20453;-76
2023/01/25 09:36:39;;;;;;;101.55;29.63;;;-0.10;99.90;;;;;;5041453;28;20087;-76
2023/01/25 09:39:06;;;;;;;105.32;29.25;;;-0.10;99.90;;;;;;5053283;28;20652;-77
2023/01/25 09:42:08;;;;;;;98.50;30.38;;;0.00;99.90;;;;;;5046371;28;20041;-77
2023/01/25 09:44:40;;;;;;;88.18;29.63;;;0.00;99.90;;;;;;5012305;28;20380;-77
2023/01/25 09:47:25;;;;;;;103.90;29.77;;;0.10;99.90;;;;;;5037067;28;21289;-76
2023/01/25 09:50:21;;;;;;;89.87;29.27;;;0.10;99.90;;;;;;5021537;28;20049;-78
2023/01/25 09:53:25;;;;;;;92.40;30.15;;;0.00;99.90;;;;;;5047553;28;20288;-79
2023/01/25 09:56:08;;;;;;;83.85;28.50;;;0.00;99.90;;;;;;5020273;28;20047;-77
2023/01/25 09:58:47;;;;;;;157.77;33.67;;;0.00;99.90;;;;;;5022333;28;20676;-77
2023/01/25 10:01:47;;;;;;;92.72;30.95;;;0.10;99.90;;;;;;5045643;28;20037;-77
2023/01/25 10:04:20;;;;;;;100.60;30.35;;;0.10;99.90;;;;;;5010019;28;20158;-77
2023/01/25 10:06:59;;;;;;;111.88;29.30;;;0.00;99.90;;;;;;5030535;28;20037;-76
2023/01/25 10:10:04;;;;;;;93.28;30.58;;;0.00;99.90;;;;;;5049769;28;20044;-77
2023/01/25 10:12:35;;;;;;;112.63;34.13;;;0.20;99.90;;;;;;5035879;28;20053;-76
2023/01/25 10:15:19;;;;;;;105.05;31.73;;;0.30;99.90;;;;;;5035450;28;20041;-77
2023/01/25 10:17:57;;;;;;;106.10;31.92;;;0.30;99.90;;;;;;5052356;28;20045;-76
2023/01/25 10:20:46;;;;;;;108.57;32.75;;;0.40;99.90;;;;;;5053320;28;20068;-77
2023/01/25 10:23:34;;;;;;;95.18;32.38;;;0.40;99.90;;;;;;5036772;28;20044;-76
2023/01/25 10:26:25;;;;;;;102.82;33.17;;;0.40;99.90;;;;;;5037188;28;20041;-76
2023/01/25 10:29:10;;;;;;;99.75;32.72;;;0.30;99.90;;;;;;5039470;28;20140;-76
2023/01/25 10:31:49;;;;;;;90.97;27.05;;;0.30;99.90;;;;;;5033561;28;20426;-76
2023/01/25 10:34:24;;;;;;;87.30;26.33;;;0.20;99.90;;;;;;5051365;28;20083;-76
2023/01/25 10:37:02;;;;;;;78.38;25.80;;;0.10;99.90;;;;;;5053093;28;20056;-78
2023/01/25 10:39:36;;;;;;;79.28;27.30;;;0.10;99.90;;;;;;5034169;28;20092;-77
2023/01/25 10:42:10;;;;;;;102.22;31.73;;;0.30;99.90;;;;;;5035183;28;20110;-77
2023/01/25 10:44:37;;;;;;;90.97;29.15;;;0.20;99.90;;;;;;5036722;28;20568;-77
2023/01/25 10:47:16;;;;;;;82.45;25.58;;;0.20;99.90;;;;;;5018718;28;20052;-77
2023/01/25 10:49:52;;;;;;;58.95;21.83;;;0.20;99.90;;;;;;5039916;28;20053;-77
2023/01/25 10:52:28;;;;;;;63.35;23.50;;;-0.10;99.90;;;;;;5020050;28;20408;-78
2023/01/25 10:55:18;;;;;;;76.90;24.65;;;0.10;99.90;;;;;;5042896;28;20057;-78
2023/01/25 10:57:56;;;;;;;69.82;25.75;;;0.10;99.90;;;;;;5040539;28;20079;-77
2023/01/25 11:00:41;;;;;;;53.22;23.10;;;0.10;99.90;;;;;;5039051;28;20052;-77
2023/01/25 11:03:20;;;;;;;52.40;21.05;;;0.10;99.90;;;;;;5021175;28;20775;-77
2023/01/25 11:05:55;;;;;;;61.95;20.20;;;-0.10;99.90;;;;;;5040917;28;20514;-78
2023/01/25 11:08:33;;;;;;;54.53;20.15;;;0.10;99.90;;;;;;5020803;28;20139;-77
2023/01/25 11:11:17;;;;;;;59.22;19.73;;;0.00;99.90;;;;;;5035786;28;20044;-77
2023/01/25 11:13:44;;;;;;;43.78;18.55;;;0.10;99.90;;;;;;5033484;28;20059;-77
2023/01/25 11:16:23;;;;;;;54.45;17.20;;;0.10;99.90;;;;;;5018478;28;20041;-77
2023/01/25 11:18:55;;;;;;;45.20;18.00;;;-0.10;99.90;;;;;;5045582;28;20625;-77
2023/01/25 11:21:25;;;;;;;44.78;18.08;;;0.00;99.90;;;;;;5036544;28;20047;-76
2023/01/25 11:23:57;;;;;;;49.40;17.73;;;-0.10;99.90;;;;;;5024238;28;20232;-76
2023/01/25 11:26:24;;;;;;;43.67;17.85;;;-0.10;99.90;;;;;;5052819;28;20051;-75
2023/01/25 11:29:24;;;;;;;48.92;18.33;;;-0.10;99.90;;;;;;5055774;28;20449;-74
2023/01/25 11:31:56;;;;;;;54.53;20.67;;;-0.10;99.90;;;;;;5022266;28;20116;-74
2023/01/25 11:34:28;;;;;;;66.35;18.00;;;-0.20;99.90;;;;;;5032799;28;20497;-74
2023/01/25 11:37:15;;;;;;;72.90;18.88;;;-0.30;99.90;;;;;;5052629;28;20045;-74
2023/01/25 11:39:54;;;;;;;70.82;17.38;;;-0.30;99.90;;;;;;5041408;28;20056;-74
2023/01/25 11:42:41;;;;;;;85.43;19.70;;;-0.20;99.90;;;;;;5034591;28;20053;-74
2023/01/25 11:45:23;;;;;;;104.03;20.25;;;-0.10;99.90;;;;;;5050840;28;20052;-76
2023/01/25 11:48:07;;;;;;;60.25;20.27;;;0.10;99.90;;;;;;5030620;28;20245;-76
2023/01/25 11:51:02;;;;;;;64.22;21.65;;;0.20;99.90;;;;;;5048652;28;20079;-76
2023/01/25 11:53:58;;;;;;;78.03;22.30;;;0.40;99.90;;;;;;5036414;28;20777;-76
2023/01/25 11:56:48;;;;;;;75.63;21.30;;;0.40;99.90;;;;;;5036521;28;20469;-74
2023/01/25 11:59:29;;;;;;;71.65;20.83;;;0.30;99.90;;;;;;5037908;28;20045;-74
2023/01/25 12:02:22;;;;;;;118.85;24.83;;;0.30;99.90;;;;;;5035636;28;20680;-78
2023/01/25 12:05:08;;;;;;;100.10;23.13;;;0.30;99.90;;;;;;5024952;28;20132;-77
2023/01/25 12:08:13;;;;;;;72.68;20.67;;;0.40;99.90;;;;;;5055532;28;20053;-77
2023/01/25 12:11:01;;;;;;;64.50;19.75;;;0.40;99.90;;;;;;5060259;28;20127;-77
2023/01/25 12:13:31;;;;;;;80.72;21.80;;;0.20;99.90;;;;;;5023758;28;20053;-78
2023/01/25 12:16:22;;;;;;;69.50;21.95;;;0.30;99.90;;;;;;5055157;28;20048;-78
2023/01/25 12:19:10;;;;;;;88.03;22.08;;;0.30;99.90;;;;;;5032434;28;20042;-78
2023/01/25 12:21:49;;;;;;;86.72;20.80;;;0.20;99.90;;;;;;5037174;28;20450;-78
2023/01/25 12:24:37;;;;;;;102.43;23.20;;;0.40;99.90;;;;;;5037826;28;20080;-79
2023/01/25 12:27:06;;;;;;;67.57;23.15;;;0.20;99.90;;;;;;5042753;28;20053;-77
2023/01/25 12:29:51;;;;;;;87.00;22.27;;;0.30;99.90;;;;;;5036596;28;20418;-78
2023/01/25 12:32:23;;;;;;;60.47;21.27;;;0.20;99.90;;;;;;5037641;28;20576;-78
2023/01/25 12:35:20;;;;;;;88.63;25.63;;;0.20;99.90;;;;;;5041599;28;20498;-76
2023/01/25 12:37:48;;;;;;;74.05;20.08;;;0.00;99.90;;;;;;5053027;28;20045;-76
2023/01/25 12:40:20;;;;;;;89.95;20.40;;;0.00;99.90;;;;;;5023688;28;20852;-76
2023/01/25 12:42:52;;;;;;;75.32;20.23;;;0.00;99.90;;;;;;5040403;28;20048;-78
2023/01/25 12:45:25;;;;;;;86.43;21.92;;;0.00;99.90;;;;;;5053688;28;20037;-76
2023/01/25 12:48:19;;;;;;;73.68;20.88;;;0.00;99.90;;;;;;5041152;28;20045;-75
2023/01/25 12:50:53;;;;;;;81.55;19.48;;;0.00;99.90;;;;;;5033400;28;20069;-78
2023/01/25 12:53:26;;;;;;;158.68;23.50;;;0.00;99.90;;;;;;5022634;28;20098;-77
2023/01/25 12:55:54;;;;;;;96.03;20.60;;;-0.20;99.90;;;;;;5043133;28;20124;-77